Princeton's Hourly Summary for Tuesday, May 15, 2018
Hour Temp
(f)
RH
(%)
Solar Rad.
(MJ/m2)
Rainfall
(in)
Wind
(mph)
5/15/2018 12:00 AM 77 71 0 0 3.8
5/15/2018 1:00 AM 75 74 0 0 2.61
5/15/2018 2:00 AM 75 74 0 0 3.75
5/15/2018 3:00 AM 74 74 0 0 4.4
5/15/2018 4:00 AM 74 74 0 0 1.36
5/15/2018 5:00 AM 74 75 0 0 0.41
5/15/2018 6:00 AM 73 78 0 0 0.8
5/15/2018 7:00 AM 71 91 0.01 0 1.18
5/15/2018 8:00 AM 71 99 0.15 0 1.95
5/15/2018 9:00 AM 70 99 0.23 0 2.12
5/15/2018 10:00 AM 70 94 0.53 0 2.08
5/15/2018 11:00 AM 73 72 1.43 0 3.04
5/15/2018 12:00 PM 76 59 2.28 0 4.68
5/15/2018 1:00 PM 79 53 2.51 0 6.14
5/15/2018 2:00 PM 81 48 2.28 0 5.67
5/15/2018 3:00 PM 83 46 2.63 0 4.67
5/15/2018 4:00 PM 85 38 2.68 0 4.69
5/15/2018 5:00 PM 86 42 2 0 3.08
5/15/2018 6:00 PM 82 43 1.01 0 3.41
5/15/2018 7:00 PM 75 60 0.36 0 2.31
5/15/2018 8:00 PM 73 67 0.15 0 1.59
5/15/2018 9:00 PM 72 67 0.01 0 2.18
5/15/2018 10:00 PM 70 67 0 0 1.71
5/15/2018 11:00 PM 69 73 0 0 0.69
Data Summary 75 68 18.26 0.00 2.85